sensor_id;sensor_type;location;lat;lon;timestamp;temperature;humidity
19817;DHT22;68323;49.394;8.434;2023-07-20T00:01:35;21.70;64.10
19817;DHT22;68323;49.394;8.434;2023-07-20T00:04:00;21.70;64.30
19817;DHT22;68323;49.394;8.434;2023-07-20T00:06:26;21.70;64.30
19817;DHT22;68323;49.394;8.434;2023-07-20T00:08:53;21.60;64.60
19817;DHT22;68323;49.394;8.434;2023-07-20T00:11:19;21.60;64.60
19817;DHT22;68323;49.394;8.434;2023-07-20T00:13:44;21.50;64.80
19817;DHT22;68323;49.394;8.434;2023-07-20T00:16:10;21.50;64.90
19817;DHT22;68323;49.394;8.434;2023-07-20T00:18:35;21.50;65.20
19817;DHT22;68323;49.394;8.434;2023-07-20T00:21:01;21.40;65.30
19817;DHT22;68323;49.394;8.434;2023-07-20T00:23:27;21.40;65.50
19817;DHT22;68323;49.394;8.434;2023-07-20T00:25:53;21.40;65.70
19817;DHT22;68323;49.394;8.434;2023-07-20T00:28:19;21.30;66.10
19817;DHT22;68323;49.394;8.434;2023-07-20T00:30:45;21.20;66.40
19817;DHT22;68323;49.394;8.434;2023-07-20T00:33:11;21.10;67.00
19817;DHT22;68323;49.394;8.434;2023-07-20T00:35:37;21.00;68.00
19817;DHT22;68323;49.394;8.434;2023-07-20T00:38:04;21.00;68.70
19817;DHT22;68323;49.394;8.434;2023-07-20T00:40:36;20.90;69.60
19817;DHT22;68323;49.394;8.434;2023-07-20T00:43:02;20.80;71.60
19817;DHT22;68323;49.394;8.434;2023-07-20T00:45:29;20.70;71.20
19817;DHT22;68323;49.394;8.434;2023-07-20T00:47:54;20.60;70.50
19817;DHT22;68323;49.394;8.434;2023-07-20T00:50:20;20.60;70.30
19817;DHT22;68323;49.394;8.434;2023-07-20T00:52:46;20.50;70.60
19817;DHT22;68323;49.394;8.434;2023-07-20T00:55:11;20.50;70.90
19817;DHT22;68323;49.394;8.434;2023-07-20T00:57:37;20.40;72.10
19817;DHT22;68323;49.394;8.434;2023-07-20T01:00:03;20.30;72.00
19817;DHT22;68323;49.394;8.434;2023-07-20T01:02:29;20.30;71.90
19817;DHT22;68323;49.394;8.434;2023-07-20T01:04:54;20.30;72.60
19817;DHT22;68323;49.394;8.434;2023-07-20T01:07:31;20.20;72.40
19817;DHT22;68323;49.394;8.434;2023-07-20T01:10:22;20.10;73.30
19817;DHT22;68323;49.394;8.434;2023-07-20T01:12:52;20.00;73.90
19817;DHT22;68323;49.394;8.434;2023-07-20T01:15:18;20.00;74.50
19817;DHT22;68323;49.394;8.434;2023-07-20T01:17:44;20.00;75.10
19817;DHT22;68323;49.394;8.434;2023-07-20T01:20:13;19.90;76.10
19817;DHT22;68323;49.394;8.434;2023-07-20T01:23:09;19.80;76.50
19817;DHT22;68323;49.394;8.434;2023-07-20T01:33:54;19.60;78.70
19817;DHT22;68323;49.394;8.434;2023-07-20T01:36:23;19.60;78.50
19817;DHT22;68323;49.394;8.434;2023-07-20T01:38:51;19.50;78.00
19817;DHT22;68323;49.394;8.434;2023-07-20T01:41:16;19.50;77.40
19817;DHT22;68323;49.394;8.434;2023-07-20T01:43:43;19.50;76.80
19817;DHT22;68323;49.394;8.434;2023-07-20T01:46:08;19.50;76.10
19817;DHT22;68323;49.394;8.434;2023-07-20T01:48:34;19.50;75.80
19817;DHT22;68323;49.394;8.434;2023-07-20T01:50:59;19.60;75.90
19817;DHT22;68323;49.394;8.434;2023-07-20T01:53:25;19.50;76.20
19817;DHT22;68323;49.394;8.434;2023-07-20T01:55:53;19.60;75.80
19817;DHT22;68323;49.394;8.434;2023-07-20T01:58:19;19.60;75.60
19817;DHT22;68323;49.394;8.434;2023-07-20T02:00:44;19.60;74.90
19817;DHT22;68323;49.394;8.434;2023-07-20T02:03:10;19.70;74.50
19817;DHT22;68323;49.394;8.434;2023-07-20T02:05:37;19.70;74.20
19817;DHT22;68323;49.394;8.434;2023-07-20T02:08:03;19.80;73.90
19817;DHT22;68323;49.394;8.434;2023-07-20T02:10:28;19.80;73.70
19817;DHT22;68323;49.394;8.434;2023-07-20T02:12:54;19.80;73.80
19817;DHT22;68323;49.394;8.434;2023-07-20T02:15:20;19.90;73.80
19817;DHT22;68323;49.394;8.434;2023-07-20T02:17:46;19.90;73.70
19817;DHT22;68323;49.394;8.434;2023-07-20T02:20:12;19.90;73.90
19817;DHT22;68323;49.394;8.434;2023-07-20T02:22:38;19.80;73.90
19817;DHT22;68323;49.394;8.434;2023-07-20T02:25:05;19.80;73.90
19817;DHT22;68323;49.394;8.434;2023-07-20T02:27:31;19.80;74.20
19817;DHT22;68323;49.394;8.434;2023-07-20T02:29:56;19.70;74.50
19817;DHT22;68323;49.394;8.434;2023-07-20T02:32:22;19.70;74.50
19817;DHT22;68323;49.394;8.434;2023-07-20T02:34:47;19.70;74.50
19817;DHT22;68323;49.394;8.434;2023-07-20T02:37:13;19.70;74.40
19817;DHT22;68323;49.394;8.434;2023-07-20T02:39:39;19.70;74.50
19817;DHT22;68323;49.394;8.434;2023-07-20T02:42:05;19.70;74.50
19817;DHT22;68323;49.394;8.434;2023-07-20T02:44:31;19.70;74.70
19817;DHT22;68323;49.394;8.434;2023-07-20T02:46:56;19.70;75.00
19817;DHT22;68323;49.394;8.434;2023-07-20T02:49:22;19.70;74.80
19817;DHT22;68323;49.394;8.434;2023-07-20T02:51:47;19.60;75.10
19817;DHT22;68323;49.394;8.434;2023-07-20T02:54:13;19.60;75.30
19817;DHT22;68323;49.394;8.434;2023-07-20T02:56:38;19.50;75.40
19817;DHT22;68323;49.394;8.434;2023-07-20T02:59:04;19.50;75.50
19817;DHT22;68323;49.394;8.434;2023-07-20T03:01:29;19.50;75.60
19817;DHT22;68323;49.394;8.434;2023-07-20T03:03:55;19.50;75.70
19817;DHT22;68323;49.394;8.434;2023-07-20T03:06:21;19.50;76.10
19817;DHT22;68323;49.394;8.434;2023-07-20T03:08:47;19.40;76.40
19817;DHT22;68323;49.394;8.434;2023-07-20T03:11:17;19.40;76.40
19817;DHT22;68323;49.394;8.434;2023-07-20T03:13:44;19.40;76.40
19817;DHT22;68323;49.394;8.434;2023-07-20T03:16:11;19.40;77.00
19817;DHT22;68323;49.394;8.434;2023-07-20T03:18:38;19.40;77.40
19817;DHT22;68323;49.394;8.434;2023-07-20T03:21:04;19.30;77.70
19817;DHT22;68323;49.394;8.434;2023-07-20T03:23:30;19.30;78.20
19817;DHT22;68323;49.394;8.434;2023-07-20T03:25:56;19.30;78.00
19817;DHT22;68323;49.394;8.434;2023-07-20T03:28:21;19.30;78.90
19817;DHT22;68323;49.394;8.434;2023-07-20T03:30:53;19.30;79.30
19817;DHT22;68323;49.394;8.434;2023-07-20T03:33:20;19.20;79.80
19817;DHT22;68323;49.394;8.434;2023-07-20T03:35:45;19.20;80.00
19817;DHT22;68323;49.394;8.434;2023-07-20T03:38:11;19.20;79.90
19817;DHT22;68323;49.394;8.434;2023-07-20T03:40:36;19.10;80.70
19817;DHT22;68323;49.394;8.434;2023-07-20T03:43:02;19.10;81.40
19817;DHT22;68323;49.394;8.434;2023-07-20T03:45:27;19.00;81.90
19817;DHT22;68323;49.394;8.434;2023-07-20T03:47:53;19.00;83.90
19817;DHT22;68323;49.394;8.434;2023-07-20T03:50:18;18.90;83.00
19817;DHT22;68323;49.394;8.434;2023-07-20T03:52:44;18.90;83.50
19817;DHT22;68323;49.394;8.434;2023-07-20T03:55:09;18.90;84.60
19817;DHT22;68323;49.394;8.434;2023-07-20T03:57:35;18.90;86.90
19817;DHT22;68323;49.394;8.434;2023-07-20T04:00:01;18.80;88.40
19817;DHT22;68323;49.394;8.434;2023-07-20T04:02:27;18.80;88.10
19817;DHT22;68323;49.394;8.434;2023-07-20T04:04:52;18.70;88.60
19817;DHT22;68323;49.394;8.434;2023-07-20T04:07:17;18.70;89.10
19817;DHT22;68323;49.394;8.434;2023-07-20T04:09:43;18.60;89.40
19817;DHT22;68323;49.394;8.434;2023-07-20T04:12:09;18.60;90.00
19817;DHT22;68323;49.394;8.434;2023-07-20T04:14:34;18.60;89.50
19817;DHT22;68323;49.394;8.434;2023-07-20T04:17:00;18.60;89.10
19817;DHT22;68323;49.394;8.434;2023-07-20T04:19:26;18.60;89.40
19817;DHT22;68323;49.394;8.434;2023-07-20T04:21:51;18.50;90.00
19817;DHT22;68323;49.394;8.434;2023-07-20T04:24:17;18.60;90.40
19817;DHT22;68323;49.394;8.434;2023-07-20T04:26:42;18.50;90.50
19817;DHT22;68323;49.394;8.434;2023-07-20T04:29:08;18.50;90.70
19817;DHT22;68323;49.394;8.434;2023-07-20T04:31:34;18.50;91.10
19817;DHT22;68323;49.394;8.434;2023-07-20T04:34:00;18.50;91.10
19817;DHT22;68323;49.394;8.434;2023-07-20T04:36:26;18.50;91.60
19817;DHT22;68323;49.394;8.434;2023-07-20T04:38:52;18.40;91.70
19817;DHT22;68323;49.394;8.434;2023-07-20T04:41:17;18.50;91.90
19817;DHT22;68323;49.394;8.434;2023-07-20T04:43:43;18.50;92.20
19817;DHT22;68323;49.394;8.434;2023-07-20T04:46:10;18.50;91.80
19817;DHT22;68323;49.394;8.434;2023-07-20T04:48:36;18.60;92.10
19817;DHT22;68323;49.394;8.434;2023-07-20T04:51:03;18.60;92.00
19817;DHT22;68323;49.394;8.434;2023-07-20T04:53:28;18.60;92.30
19817;DHT22;68323;49.394;8.434;2023-07-20T04:55:54;18.60;92.20
19817;DHT22;68323;49.394;8.434;2023-07-20T04:58:20;18.60;92.30
19817;DHT22;68323;49.394;8.434;2023-07-20T05:00:47;18.70;92.20
19817;DHT22;68323;49.394;8.434;2023-07-20T05:03:13;18.70;92.20
19817;DHT22;68323;49.394;8.434;2023-07-20T05:05:39;18.80;92.60
19817;DHT22;68323;49.394;8.434;2023-07-20T05:08:04;18.90;92.60
19817;DHT22;68323;49.394;8.434;2023-07-20T05:10:30;18.90;92.40
19817;DHT22;68323;49.394;8.434;2023-07-20T05:12:55;19.10;93.20
19817;DHT22;68323;49.394;8.434;2023-07-20T05:15:21;19.20;92.70
19817;DHT22;68323;49.394;8.434;2023-07-20T05:17:46;19.30;92.40
19817;DHT22;68323;49.394;8.434;2023-07-20T05:20:14;19.40;91.90
19817;DHT22;68323;49.394;8.434;2023-07-20T05:22:40;19.40;91.30
19817;DHT22;68323;49.394;8.434;2023-07-20T05:25:07;19.50;91.00
19817;DHT22;68323;49.394;8.434;2023-07-20T05:27:33;19.60;91.30
19817;DHT22;68323;49.394;8.434;2023-07-20T05:29:59;19.70;91.20
19817;DHT22;68323;49.394;8.434;2023-07-20T05:32:25;19.80;90.70
19817;DHT22;68323;49.394;8.434;2023-07-20T05:34:54;20.00;90.70
19817;DHT22;68323;49.394;8.434;2023-07-20T05:37:20;20.50;90.30
19817;DHT22;68323;49.394;8.434;2023-07-20T05:39:45;21.20;88.20
19817;DHT22;68323;49.394;8.434;2023-07-20T05:42:11;22.00;83.60
19817;DHT22;68323;49.394;8.434;2023-07-20T05:44:36;22.70;79.70
19817;DHT22;68323;49.394;8.434;2023-07-20T05:47:02;23.40;76.50
19817;DHT22;68323;49.394;8.434;2023-07-20T05:49:30;24.00;73.00
19817;DHT22;68323;49.394;8.434;2023-07-20T05:51:56;24.80;69.70
19817;DHT22;68323;49.394;8.434;2023-07-20T05:54:23;25.40;66.70
19817;DHT22;68323;49.394;8.434;2023-07-20T05:56:49;26.00;65.60
19817;DHT22;68323;49.394;8.434;2023-07-20T05:59:14;26.40;62.80
19817;DHT22;68323;49.394;8.434;2023-07-20T06:01:40;26.80;61.30
19817;DHT22;68323;49.394;8.434;2023-07-20T06:04:05;27.40;59.90
19817;DHT22;68323;49.394;8.434;2023-07-20T06:06:31;27.80;58.70
19817;DHT22;68323;49.394;8.434;2023-07-20T06:08:56;28.20;57.40
19817;DHT22;68323;49.394;8.434;2023-07-20T06:11:23;28.60;56.70
19817;DHT22;68323;49.394;8.434;2023-07-20T06:13:49;29.10;55.50
19817;DHT22;68323;49.394;8.434;2023-07-20T06:16:14;29.20;55.20
19817;DHT22;68323;49.394;8.434;2023-07-20T06:18:40;29.20;54.50
19817;DHT22;68323;49.394;8.434;2023-07-20T06:21:05;28.90;54.80
19817;DHT22;68323;49.394;8.434;2023-07-20T06:23:31;28.50;54.80
19817;DHT22;68323;49.394;8.434;2023-07-20T06:25:56;28.00;55.30
19817;DHT22;68323;49.394;8.434;2023-07-20T06:28:22;27.70;56.20
19817;DHT22;68323;49.394;8.434;2023-07-20T06:30:47;27.40;56.80
19817;DHT22;68323;49.394;8.434;2023-07-20T06:33:13;27.20;57.20
19817;DHT22;68323;49.394;8.434;2023-07-20T06:35:41;27.10;57.70
19817;DHT22;68323;49.394;8.434;2023-07-20T06:38:08;27.20;57.50
19817;DHT22;68323;49.394;8.434;2023-07-20T06:40:33;27.50;57.60
19817;DHT22;68323;49.394;8.434;2023-07-20T06:42:59;27.90;56.90
19817;DHT22;68323;49.394;8.434;2023-07-20T06:45:25;28.20;55.70
19817;DHT22;68323;49.394;8.434;2023-07-20T06:47:50;28.30;55.30
19817;DHT22;68323;49.394;8.434;2023-07-20T06:50:16;28.20;55.30
19817;DHT22;68323;49.394;8.434;2023-07-20T06:52:42;28.20;55.20
19817;DHT22;68323;49.394;8.434;2023-07-20T06:55:08;27.90;54.90
19817;DHT22;68323;49.394;8.434;2023-07-20T06:57:33;28.10;54.60
19817;DHT22;68323;49.394;8.434;2023-07-20T06:59:59;28.60;53.80
19817;DHT22;68323;49.394;8.434;2023-07-20T07:02:24;29.50;52.40
19817;DHT22;68323;49.394;8.434;2023-07-20T07:04:50;30.40;51.00
19817;DHT22;68323;49.394;8.434;2023-07-20T07:07:15;31.60;50.00
19817;DHT22;68323;49.394;8.434;2023-07-20T07:09:41;32.60;48.20
19817;DHT22;68323;49.394;8.434;2023-07-20T07:12:08;33.40;46.80
19817;DHT22;68323;49.394;8.434;2023-07-20T07:14:33;34.10;44.80
19817;DHT22;68323;49.394;8.434;2023-07-20T07:17:00;34.60;44.20
19817;DHT22;68323;49.394;8.434;2023-07-20T07:19:25;34.90;43.40
19817;DHT22;68323;49.394;8.434;2023-07-20T07:21:51;35.20;43.30
19817;DHT22;68323;49.394;8.434;2023-07-20T07:24:16;35.60;42.70
19817;DHT22;68323;49.394;8.434;2023-07-20T07:26:42;36.20;42.00
19817;DHT22;68323;49.394;8.434;2023-07-20T07:29:07;36.70;40.70
19817;DHT22;68323;49.394;8.434;2023-07-20T07:31:35;37.10;40.30
19817;DHT22;68323;49.394;8.434;2023-07-20T07:34:04;37.60;39.10
19817;DHT22;68323;49.394;8.434;2023-07-20T07:36:30;38.10;38.40
19817;DHT22;68323;49.394;8.434;2023-07-20T07:38:56;38.60;37.50
19817;DHT22;68323;49.394;8.434;2023-07-20T07:41:21;38.90;36.60
19817;DHT22;68323;49.394;8.434;2023-07-20T07:43:47;38.60;36.30
19817;DHT22;68323;49.394;8.434;2023-07-20T07:46:13;37.70;36.60
19817;DHT22;68323;49.394;8.434;2023-07-20T07:48:39;36.50;38.30
19817;DHT22;68323;49.394;8.434;2023-07-20T07:51:05;35.20;39.70
19817;DHT22;68323;49.394;8.434;2023-07-20T07:53:31;34.50;40.40
19817;DHT22;68323;49.394;8.434;2023-07-20T07:55:57;34.00;41.20
19817;DHT22;68323;49.394;8.434;2023-07-20T07:58:23;33.60;42.10
19817;DHT22;68323;49.394;8.434;2023-07-20T08:00:48;33.70;42.10
19817;DHT22;68323;49.394;8.434;2023-07-20T08:03:14;34.20;41.70
19817;DHT22;68323;49.394;8.434;2023-07-20T08:05:40;35.00;41.00
19817;DHT22;68323;49.394;8.434;2023-07-20T08:08:10;35.50;39.80
19817;DHT22;68323;49.394;8.434;2023-07-20T08:10:36;36.00;38.40
19817;DHT22;68323;49.394;8.434;2023-07-20T08:13:01;36.30;38.60
19817;DHT22;68323;49.394;8.434;2023-07-20T08:15:27;36.70;38.20
19817;DHT22;68323;49.394;8.434;2023-07-20T08:17:53;36.80;37.00
19817;DHT22;68323;49.394;8.434;2023-07-20T08:20:19;36.90;37.30
19817;DHT22;68323;49.394;8.434;2023-07-20T08:22:44;37.20;37.20
19817;DHT22;68323;49.394;8.434;2023-07-20T08:25:10;37.30;37.10
19817;DHT22;68323;49.394;8.434;2023-07-20T08:27:36;37.50;36.70
19817;DHT22;68323;49.394;8.434;2023-07-20T08:30:02;37.70;36.80
19817;DHT22;68323;49.394;8.434;2023-07-20T08:32:29;38.00;37.00
19817;DHT22;68323;49.394;8.434;2023-07-20T08:34:55;38.70;35.70
19817;DHT22;68323;49.394;8.434;2023-07-20T08:37:20;38.60;35.00
19817;DHT22;68323;49.394;8.434;2023-07-20T08:39:46;38.00;35.80
19817;DHT22;68323;49.394;8.434;2023-07-20T08:42:14;37.40;36.50
19817;DHT22;68323;49.394;8.434;2023-07-20T08:44:41;37.00;36.70
19817;DHT22;68323;49.394;8.434;2023-07-20T08:47:08;36.90;35.90
19817;DHT22;68323;49.394;8.434;2023-07-20T08:49:34;36.80;36.90
19817;DHT22;68323;49.394;8.434;2023-07-20T08:52:00;37.00;36.40
19817;DHT22;68323;49.394;8.434;2023-07-20T08:54:30;37.60;35.60
19817;DHT22;68323;49.394;8.434;2023-07-20T08:56:58;38.30;34.80
19817;DHT22;68323;49.394;8.434;2023-07-20T08:59:26;39.10;33.90
19817;DHT22;68323;49.394;8.434;2023-07-20T09:01:55;39.80;32.90
19817;DHT22;68323;49.394;8.434;2023-07-20T09:04:21;40.40;32.60
19817;DHT22;68323;49.394;8.434;2023-07-20T09:06:49;40.70;32.20
19817;DHT22;68323;49.394;8.434;2023-07-20T09:09:14;41.00;32.40
19817;DHT22;68323;49.394;8.434;2023-07-20T09:11:40;41.40;32.20
19817;DHT22;68323;49.394;8.434;2023-07-20T09:14:07;41.80;31.70
19817;DHT22;68323;49.394;8.434;2023-07-20T09:16:53;42.10;31.20
19817;DHT22;68323;49.394;8.434;2023-07-20T09:19:20;42.50;30.30
19817;DHT22;68323;49.394;8.434;2023-07-20T09:21:48;42.40;29.90
19817;DHT22;68323;49.394;8.434;2023-07-20T09:24:14;42.20;29.80
19817;DHT22;68323;49.394;8.434;2023-07-20T09:26:44;42.20;29.80
19817;DHT22;68323;49.394;8.434;2023-07-20T09:29:10;41.60;29.90
19817;DHT22;68323;49.394;8.434;2023-07-20T09:31:36;41.10;30.20
19817;DHT22;68323;49.394;8.434;2023-07-20T09:34:02;40.90;31.10
19817;DHT22;68323;49.394;8.434;2023-07-20T09:36:29;41.00;31.30
19817;DHT22;68323;49.394;8.434;2023-07-20T09:38:54;41.00;30.80
19817;DHT22;68323;49.394;8.434;2023-07-20T09:41:21;40.70;30.70
19817;DHT22;68323;49.394;8.434;2023-07-20T09:43:47;40.10;31.60
19817;DHT22;68323;49.394;8.434;2023-07-20T09:46:13;39.00;32.40
19817;DHT22;68323;49.394;8.434;2023-07-20T09:48:39;37.60;34.20
19817;DHT22;68323;49.394;8.434;2023-07-20T09:51:05;36.30;35.90
19817;DHT22;68323;49.394;8.434;2023-07-20T09:53:33;35.10;36.40
19817;DHT22;68323;49.394;8.434;2023-07-20T09:55:58;34.10;37.70
19817;DHT22;68323;49.394;8.434;2023-07-20T09:58:26;33.40;39.10
19817;DHT22;68323;49.394;8.434;2023-07-20T10:00:55;32.80;39.20
19817;DHT22;68323;49.394;8.434;2023-07-20T10:03:28;32.40;39.60
19817;DHT22;68323;49.394;8.434;2023-07-20T10:06:02;32.70;39.00
19817;DHT22;68323;49.394;8.434;2023-07-20T10:08:30;33.70;38.40
19817;DHT22;68323;49.394;8.434;2023-07-20T10:10:59;34.60;37.50
19817;DHT22;68323;49.394;8.434;2023-07-20T10:13:28;35.20;37.00
19817;DHT22;68323;49.394;8.434;2023-07-20T10:15:57;35.60;36.50
19817;DHT22;68323;49.394;8.434;2023-07-20T10:18:41;35.60;36.30
19817;DHT22;68323;49.394;8.434;2023-07-20T10:21:14;35.40;35.80
19817;DHT22;68323;49.394;8.434;2023-07-20T10:23:42;35.20;36.10
19817;DHT22;68323;49.394;8.434;2023-07-20T10:26:07;35.60;36.20
19817;DHT22;68323;49.394;8.434;2023-07-20T10:28:34;36.30;35.10
19817;DHT22;68323;49.394;8.434;2023-07-20T10:30:59;36.60;34.50
19817;DHT22;68323;49.394;8.434;2023-07-20T10:33:25;36.20;35.00
19817;DHT22;68323;49.394;8.434;2023-07-20T10:35:56;36.10;35.50
19817;DHT22;68323;49.394;8.434;2023-07-20T10:41:21;36.30;34.90
19817;DHT22;68323;49.394;8.434;2023-07-20T10:43:48;35.70;35.50
19817;DHT22;68323;49.394;8.434;2023-07-20T10:46:14;35.10;36.30
19817;DHT22;68323;49.394;8.434;2023-07-20T10:49:02;34.60;36.90
19817;DHT22;68323;49.394;8.434;2023-07-20T10:51:29;34.40;37.40
19817;DHT22;68323;49.394;8.434;2023-07-20T10:53:58;34.70;37.50
19817;DHT22;68323;49.394;8.434;2023-07-20T10:56:28;35.00;36.90
19817;DHT22;68323;49.394;8.434;2023-07-20T10:59:00;34.80;36.90
19817;DHT22;68323;49.394;8.434;2023-07-20T11:01:30;34.40;37.60
19817;DHT22;68323;49.394;8.434;2023-07-20T11:03:58;34.00;38.10
19817;DHT22;68323;49.394;8.434;2023-07-20T11:09:11;33.10;39.00
19817;DHT22;68323;49.394;8.434;2023-07-20T11:11:40;32.70;39.60
19817;DHT22;68323;49.394;8.434;2023-07-20T11:14:08;32.30;39.90
19817;DHT22;68323;49.394;8.434;2023-07-20T11:16:42;32.00;40.40
19817;DHT22;68323;49.394;8.434;2023-07-20T11:19:25;31.90;40.80
19817;DHT22;68323;49.394;8.434;2023-07-20T11:21:53;31.60;41.30
19817;DHT22;68323;49.394;8.434;2023-07-20T11:24:19;31.50;41.20
19817;DHT22;68323;49.394;8.434;2023-07-20T11:26:47;31.40;41.40
19817;DHT22;68323;49.394;8.434;2023-07-20T11:29:13;31.40;41.20
19817;DHT22;68323;49.394;8.434;2023-07-20T11:31:40;31.40;41.10
19817;DHT22;68323;49.394;8.434;2023-07-20T11:34:10;31.40;41.10
19817;DHT22;68323;49.394;8.434;2023-07-20T11:36:36;31.20;41.40
19817;DHT22;68323;49.394;8.434;2023-07-20T11:39:02;30.90;41.60
19817;DHT22;68323;49.394;8.434;2023-07-20T11:41:30;30.70;42.10
19817;DHT22;68323;49.394;8.434;2023-07-20T11:43:57;30.60;42.00
19817;DHT22;68323;49.394;8.434;2023-07-20T11:46:22;30.50;42.30
19817;DHT22;68323;49.394;8.434;2023-07-20T11:48:48;30.40;42.70
19817;DHT22;68323;49.394;8.434;2023-07-20T11:51:17;30.20;43.20
19817;DHT22;68323;49.394;8.434;2023-07-20T11:53:44;29.80;43.50
19817;DHT22;68323;49.394;8.434;2023-07-20T11:56:11;29.50;44.00
19817;DHT22;68323;49.394;8.434;2023-07-20T11:58:44;29.30;44.30
19817;DHT22;68323;49.394;8.434;2023-07-20T12:01:14;29.20;44.40
19817;DHT22;68323;49.394;8.434;2023-07-20T12:03:42;29.10;44.60
19817;DHT22;68323;49.394;8.434;2023-07-20T12:06:09;29.00;45.00
19817;DHT22;68323;49.394;8.434;2023-07-20T12:08:34;29.10;45.50
19817;DHT22;68323;49.394;8.434;2023-07-20T12:11:00;29.30;45.40
19817;DHT22;68323;49.394;8.434;2023-07-20T12:13:38;29.40;45.20
19817;DHT22;68323;49.394;8.434;2023-07-20T12:16:09;29.50;44.40
19817;DHT22;68323;49.394;8.434;2023-07-20T12:18:35;29.50;44.70
19817;DHT22;68323;49.394;8.434;2023-07-20T12:21:06;29.60;45.00
19817;DHT22;68323;49.394;8.434;2023-07-20T12:23:36;29.70;44.60
19817;DHT22;68323;49.394;8.434;2023-07-20T12:26:03;29.80;44.60
19817;DHT22;68323;49.394;8.434;2023-07-20T12:28:31;29.90;43.90
19817;DHT22;68323;49.394;8.434;2023-07-20T12:30:57;29.90;42.40
19817;DHT22;68323;49.394;8.434;2023-07-20T12:33:23;30.00;42.20
19817;DHT22;68323;49.394;8.434;2023-07-20T12:35:49;30.00;42.40
19817;DHT22;68323;49.394;8.434;2023-07-20T12:38:15;30.10;42.50
19817;DHT22;68323;49.394;8.434;2023-07-20T12:40:41;30.00;42.10
19817;DHT22;68323;49.394;8.434;2023-07-20T12:43:07;29.90;44.00
19817;DHT22;68323;49.394;8.434;2023-07-20T12:45:33;29.80;43.10
19817;DHT22;68323;49.394;8.434;2023-07-20T12:47:59;29.80;42.60
19817;DHT22;68323;49.394;8.434;2023-07-20T12:50:25;29.70;42.30
19817;DHT22;68323;49.394;8.434;2023-07-20T12:52:50;29.80;42.30
19817;DHT22;68323;49.394;8.434;2023-07-20T12:55:16;29.70;42.80
19817;DHT22;68323;49.394;8.434;2023-07-20T12:57:41;29.70;42.90
19817;DHT22;68323;49.394;8.434;2023-07-20T13:00:09;29.60;42.90
19817;DHT22;68323;49.394;8.434;2023-07-20T13:02:35;29.50;43.20
19817;DHT22;68323;49.394;8.434;2023-07-20T13:05:02;29.60;43.40
19817;DHT22;68323;49.394;8.434;2023-07-20T13:07:32;29.80;43.40
19817;DHT22;68323;49.394;8.434;2023-07-20T13:10:00;29.90;43.30
19817;DHT22;68323;49.394;8.434;2023-07-20T13:12:30;30.10;42.70
19817;DHT22;68323;49.394;8.434;2023-07-20T13:14:56;30.00;42.00
19817;DHT22;68323;49.394;8.434;2023-07-20T13:17:24;29.80;42.30
19817;DHT22;68323;49.394;8.434;2023-07-20T13:19:50;29.50;42.90
19817;DHT22;68323;49.394;8.434;2023-07-20T13:22:16;29.30;43.30
19817;DHT22;68323;49.394;8.434;2023-07-20T13:24:44;29.20;43.40
19817;DHT22;68323;49.394;8.434;2023-07-20T13:27:09;29.10;43.30
19817;DHT22;68323;49.394;8.434;2023-07-20T13:29:35;29.10;43.30
19817;DHT22;68323;49.394;8.434;2023-07-20T13:32:01;29.10;43.00
19817;DHT22;68323;49.394;8.434;2023-07-20T13:34:28;29.10;43.10
19817;DHT22;68323;49.394;8.434;2023-07-20T13:36:53;29.00;43.10
19817;DHT22;68323;49.394;8.434;2023-07-20T13:39:19;29.00;43.50
19817;DHT22;68323;49.394;8.434;2023-07-20T13:41:45;29.10;44.00
19817;DHT22;68323;49.394;8.434;2023-07-20T13:44:10;29.10;43.40
19817;DHT22;68323;49.394;8.434;2023-07-20T13:46:36;29.10;43.80
19817;DHT22;68323;49.394;8.434;2023-07-20T13:49:01;29.00;43.10
19817;DHT22;68323;49.394;8.434;2023-07-20T13:51:27;29.10;43.20
19817;DHT22;68323;49.394;8.434;2023-07-20T13:53:52;29.20;43.10
19817;DHT22;68323;49.394;8.434;2023-07-20T13:56:18;29.20;43.10
19817;DHT22;68323;49.394;8.434;2023-07-20T13:58:43;29.30;43.10
19817;DHT22;68323;49.394;8.434;2023-07-20T14:01:09;29.30;42.70
19817;DHT22;68323;49.394;8.434;2023-07-20T14:03:34;29.40;42.40
19817;DHT22;68323;49.394;8.434;2023-07-20T14:06:00;29.30;42.60
19817;DHT22;68323;49.394;8.434;2023-07-20T14:08:26;29.30;42.70
19817;DHT22;68323;49.394;8.434;2023-07-20T14:10:51;29.30;42.30
19817;DHT22;68323;49.394;8.434;2023-07-20T14:13:17;29.30;42.40
19817;DHT22;68323;49.394;8.434;2023-07-20T14:15:43;29.10;42.20
19817;DHT22;68323;49.394;8.434;2023-07-20T14:18:08;29.00;42.20
19817;DHT22;68323;49.394;8.434;2023-07-20T14:20:34;28.90;42.40
19817;DHT22;68323;49.394;8.434;2023-07-20T14:23:00;29.00;42.20
19817;DHT22;68323;49.394;8.434;2023-07-20T14:25:26;29.00;42.50
19817;DHT22;68323;49.394;8.434;2023-07-20T14:27:51;29.10;42.30
19817;DHT22;68323;49.394;8.434;2023-07-20T14:30:17;29.20;42.10
19817;DHT22;68323;49.394;8.434;2023-07-20T14:32:42;29.30;41.80
19817;DHT22;68323;49.394;8.434;2023-07-20T14:35:08;29.30;42.20
19817;DHT22;68323;49.394;8.434;2023-07-20T14:37:34;29.40;42.40
19817;DHT22;68323;49.394;8.434;2023-07-20T14:40:00;29.40;41.90
19817;DHT22;68323;49.394;8.434;2023-07-20T14:42:26;29.40;41.70
19817;DHT22;68323;49.394;8.434;2023-07-20T14:44:51;29.40;41.70
19817;DHT22;68323;49.394;8.434;2023-07-20T14:47:17;29.40;41.80
19817;DHT22;68323;49.394;8.434;2023-07-20T14:49:43;29.30;42.10
19817;DHT22;68323;49.394;8.434;2023-07-20T14:52:09;29.10;42.40
19817;DHT22;68323;49.394;8.434;2023-07-20T14:54:35;29.10;42.80
19817;DHT22;68323;49.394;8.434;2023-07-20T14:57:00;29.20;42.80
19817;DHT22;68323;49.394;8.434;2023-07-20T14:59:26;29.40;42.00
19817;DHT22;68323;49.394;8.434;2023-07-20T15:01:51;29.30;42.30
19817;DHT22;68323;49.394;8.434;2023-07-20T15:04:18;29.30;42.50
19817;DHT22;68323;49.394;8.434;2023-07-20T15:06:43;29.50;42.70
19817;DHT22;68323;49.394;8.434;2023-07-20T15:09:09;29.50;42.30
19817;DHT22;68323;49.394;8.434;2023-07-20T15:11:35;29.60;41.80
19817;DHT22;68323;49.394;8.434;2023-07-20T15:14:01;29.70;41.50
19817;DHT22;68323;49.394;8.434;2023-07-20T15:16:27;29.70;42.20
19817;DHT22;68323;49.394;8.434;2023-07-20T15:18:52;29.70;41.80
19817;DHT22;68323;49.394;8.434;2023-07-20T15:21:18;29.70;40.90
19817;DHT22;68323;49.394;8.434;2023-07-20T15:23:44;29.70;40.80
19817;DHT22;68323;49.394;8.434;2023-07-20T15:26:09;29.60;40.80
19817;DHT22;68323;49.394;8.434;2023-07-20T15:28:36;29.50;40.60
19817;DHT22;68323;49.394;8.434;2023-07-20T15:31:03;29.40;40.80
19817;DHT22;68323;49.394;8.434;2023-07-20T15:33:29;29.50;41.10
19817;DHT22;68323;49.394;8.434;2023-07-20T15:35:55;29.40;41.00
19817;DHT22;68323;49.394;8.434;2023-07-20T15:38:21;29.50;41.00
19817;DHT22;68323;49.394;8.434;2023-07-20T15:40:47;29.50;40.20